sensor_id;sensor_type;location;lat;lon;timestamp;P1;durP1;ratioP1;P2;durP2;ratioP2
20754;SDS011;26385;48.470;7.938;2022-10-26T00:02:01;6.05;;;2.00;;
20754;SDS011;26385;48.470;7.938;2022-10-26T00:04:26;6.43;;;2.25;;
20754;SDS011;26385;48.470;7.938;2022-10-26T00:06:51;3.63;;;2.03;;
20754;SDS011;26385;48.470;7.938;2022-10-26T00:09:16;3.67;;;1.98;;
20754;SDS011;26385;48.470;7.938;2022-10-26T00:11:42;4.22;;;1.77;;
20754;SDS011;26385;48.470;7.938;2022-10-26T00:14:07;7.00;;;2.20;;
20754;SDS011;26385;48.470;7.938;2022-10-26T00:16:32;5.82;;;2.00;;
20754;SDS011;26385;48.470;7.938;2022-10-26T00:18:57;4.82;;;1.77;;
20754;SDS011;26385;48.470;7.938;2022-10-26T00:21:23;3.47;;;1.92;;
20754;SDS011;26385;48.470;7.938;2022-10-26T00:23:48;5.82;;;1.80;;
20754;SDS011;26385;48.470;7.938;2022-10-26T00:26:13;4.88;;;1.52;;
20754;SDS011;26385;48.470;7.938;2022-10-26T00:28:39;4.82;;;1.83;;
20754;SDS011;26385;48.470;7.938;2022-10-26T00:31:05;6.53;;;2.10;;
20754;SDS011;26385;48.470;7.938;2022-10-26T00:33:35;3.45;;;1.67;;
20754;SDS011;26385;48.470;7.938;2022-10-26T00:36:00;3.90;;;1.80;;
20754;SDS011;26385;48.470;7.938;2022-10-26T00:38:26;3.03;;;1.60;;
20754;SDS011;26385;48.470;7.938;2022-10-26T00:40:51;4.20;;;1.92;;
20754;SDS011;26385;48.470;7.938;2022-10-26T00:45:51;2.67;;;1.90;;
20754;SDS011;26385;48.470;7.938;2022-10-26T00:48:23;4.45;;;2.15;;
20754;SDS011;26385;48.470;7.938;2022-10-26T00:50:52;5.32;;;1.67;;
20754;SDS011;26385;48.470;7.938;2022-10-26T00:53:20;5.38;;;2.05;;
20754;SDS011;26385;48.470;7.938;2022-10-26T00:55:47;4.00;;;1.80;;
20754;SDS011;26385;48.470;7.938;2022-10-26T00:58:15;4.97;;;1.90;;
20754;SDS011;26385;48.470;7.938;2022-10-26T01:00:41;7.55;;;2.10;;
20754;SDS011;26385;48.470;7.938;2022-10-26T01:03:08;3.92;;;1.75;;
20754;SDS011;26385;48.470;7.938;2022-10-26T01:05:35;5.68;;;2.55;;
20754;SDS011;26385;48.470;7.938;2022-10-26T01:08:04;4.73;;;1.87;;
20754;SDS011;26385;48.470;7.938;2022-10-26T01:10:31;5.13;;;2.08;;
20754;SDS011;26385;48.470;7.938;2022-10-26T01:12:59;8.20;;;2.08;;
20754;SDS011;26385;48.470;7.938;2022-10-26T01:15:29;7.75;;;2.03;;
20754;SDS011;26385;48.470;7.938;2022-10-26T01:18:05;3.53;;;1.88;;
20754;SDS011;26385;48.470;7.938;2022-10-26T01:23:36;4.45;;;2.20;;
20754;SDS011;26385;48.470;7.938;2022-10-26T01:32:14;5.40;;;2.00;;
20754;SDS011;26385;48.470;7.938;2022-10-26T01:37:35;4.65;;;2.15;;
20754;SDS011;26385;48.470;7.938;2022-10-26T01:40:08;6.45;;;2.35;;
20754;SDS011;26385;48.470;7.938;2022-10-26T01:42:41;5.65;;;2.40;;
20754;SDS011;26385;48.470;7.938;2022-10-26T01:45:11;5.28;;;2.13;;
20754;SDS011;26385;48.470;7.938;2022-10-26T01:47:38;7.03;;;2.92;;
20754;SDS011;26385;48.470;7.938;2022-10-26T01:50:04;2.85;;;2.03;;
20754;SDS011;26385;48.470;7.938;2022-10-26T01:52:32;5.43;;;2.25;;
20754;SDS011;26385;48.470;7.938;2022-10-26T01:55:03;9.73;;;3.25;;
20754;SDS011;26385;48.470;7.938;2022-10-26T01:57:32;5.88;;;2.05;;
20754;SDS011;26385;48.470;7.938;2022-10-26T02:00:07;6.65;;;2.25;;
20754;SDS011;26385;48.470;7.938;2022-10-26T02:02:48;6.43;;;2.22;;
20754;SDS011;26385;48.470;7.938;2022-10-26T02:08:18;4.22;;;2.28;;
20754;SDS011;26385;48.470;7.938;2022-10-26T02:11:00;6.63;;;2.30;;
20754;SDS011;26385;48.470;7.938;2022-10-26T02:16:56;3.97;;;1.95;;
20754;SDS011;26385;48.470;7.938;2022-10-26T02:19:46;2.83;;;2.20;;
20754;SDS011;26385;48.470;7.938;2022-10-26T02:22:18;2.45;;;2.10;;
20754;SDS011;26385;48.470;7.938;2022-10-26T02:24:49;5.28;;;2.03;;
20754;SDS011;26385;48.470;7.938;2022-10-26T02:27:20;6.20;;;2.33;;
20754;SDS011;26385;48.470;7.938;2022-10-26T02:29:50;6.13;;;2.25;;
20754;SDS011;26385;48.470;7.938;2022-10-26T02:32:18;6.57;;;2.60;;
20754;SDS011;26385;48.470;7.938;2022-10-26T02:34:44;7.68;;;2.10;;
20754;SDS011;26385;48.470;7.938;2022-10-26T02:37:14;4.13;;;2.13;;
20754;SDS011;26385;48.470;7.938;2022-10-26T02:39:43;6.80;;;2.00;;
20754;SDS011;26385;48.470;7.938;2022-10-26T02:42:11;5.35;;;2.15;;
20754;SDS011;26385;48.470;7.938;2022-10-26T02:44:47;5.30;;;1.98;;
20754;SDS011;26385;48.470;7.938;2022-10-26T02:47:16;8.10;;;2.00;;
20754;SDS011;26385;48.470;7.938;2022-10-26T02:49:43;3.72;;;2.20;;
20754;SDS011;26385;48.470;7.938;2022-10-26T02:52:22;5.15;;;2.15;;
20754;SDS011;26385;48.470;7.938;2022-10-26T02:57:39;3.67;;;1.88;;
20754;SDS011;26385;48.470;7.938;2022-10-26T03:00:08;5.85;;;1.85;;
20754;SDS011;26385;48.470;7.938;2022-10-26T03:02:36;5.70;;;2.20;;
20754;SDS011;26385;48.470;7.938;2022-10-26T03:05:05;4.05;;;2.13;;
20754;SDS011;26385;48.470;7.938;2022-10-26T03:07:38;2.97;;;2.00;;
20754;SDS011;26385;48.470;7.938;2022-10-26T03:10:03;3.80;;;1.92;;
20754;SDS011;26385;48.470;7.938;2022-10-26T03:12:29;5.65;;;2.15;;
20754;SDS011;26385;48.470;7.938;2022-10-26T03:14:54;5.90;;;1.95;;
20754;SDS011;26385;48.470;7.938;2022-10-26T03:17:19;4.07;;;2.08;;
20754;SDS011;26385;48.470;7.938;2022-10-26T03:19:45;7.32;;;2.10;;
20754;SDS011;26385;48.470;7.938;2022-10-26T03:22:10;6.15;;;2.20;;
20754;SDS011;26385;48.470;7.938;2022-10-26T03:24:35;5.15;;;2.05;;
20754;SDS011;26385;48.470;7.938;2022-10-26T03:27:00;3.90;;;2.28;;
20754;SDS011;26385;48.470;7.938;2022-10-26T03:29:26;4.35;;;2.00;;
20754;SDS011;26385;48.470;7.938;2022-10-26T03:31:51;2.00;;;1.77;;
20754;SDS011;26385;48.470;7.938;2022-10-26T03:34:18;3.38;;;1.70;;
20754;SDS011;26385;48.470;7.938;2022-10-26T03:36:44;4.05;;;2.20;;
20754;SDS011;26385;48.470;7.938;2022-10-26T03:39:10;3.72;;;1.92;;
20754;SDS011;26385;48.470;7.938;2022-10-26T03:41:35;7.43;;;1.90;;
20754;SDS011;26385;48.470;7.938;2022-10-26T03:44:00;4.28;;;1.90;;
20754;SDS011;26385;48.470;7.938;2022-10-26T03:46:26;4.70;;;1.88;;
20754;SDS011;26385;48.470;7.938;2022-10-26T03:48:51;3.90;;;1.90;;
20754;SDS011;26385;48.470;7.938;2022-10-26T03:51:16;3.78;;;1.80;;
20754;SDS011;26385;48.470;7.938;2022-10-26T03:53:41;3.78;;;2.00;;
20754;SDS011;26385;48.470;7.938;2022-10-26T03:56:07;4.05;;;1.95;;
20754;SDS011;26385;48.470;7.938;2022-10-26T03:58:32;3.83;;;1.98;;
20754;SDS011;26385;48.470;7.938;2022-10-26T04:00:57;5.40;;;2.10;;
20754;SDS011;26385;48.470;7.938;2022-10-26T04:03:23;4.50;;;1.70;;
20754;SDS011;26385;48.470;7.938;2022-10-26T04:05:48;5.40;;;2.08;;
20754;SDS011;26385;48.470;7.938;2022-10-26T04:08:13;3.70;;;2.40;;
20754;SDS011;26385;48.470;7.938;2022-10-26T04:10:39;6.57;;;2.30;;
20754;SDS011;26385;48.470;7.938;2022-10-26T04:13:04;6.53;;;2.35;;
20754;SDS011;26385;48.470;7.938;2022-10-26T04:15:29;3.60;;;2.17;;
20754;SDS011;26385;48.470;7.938;2022-10-26T04:17:55;8.05;;;2.17;;
20754;SDS011;26385;48.470;7.938;2022-10-26T04:20:25;4.57;;;2.20;;
20754;SDS011;26385;48.470;7.938;2022-10-26T04:22:56;5.45;;;1.75;;
20754;SDS011;26385;48.470;7.938;2022-10-26T04:25:22;3.85;;;1.95;;
20754;SDS011;26385;48.470;7.938;2022-10-26T04:27:47;4.47;;;2.30;;
20754;SDS011;26385;48.470;7.938;2022-10-26T04:30:13;4.82;;;2.20;;
20754;SDS011;26385;48.470;7.938;2022-10-26T04:32:38;1.90;;;1.70;;
20754;SDS011;26385;48.470;7.938;2022-10-26T04:35:04;3.38;;;2.10;;
20754;SDS011;26385;48.470;7.938;2022-10-26T04:37:29;4.47;;;1.95;;
20754;SDS011;26385;48.470;7.938;2022-10-26T04:39:54;4.03;;;2.42;;
20754;SDS011;26385;48.470;7.938;2022-10-26T04:42:20;4.90;;;2.08;;
20754;SDS011;26385;48.470;7.938;2022-10-26T04:44:45;5.60;;;2.33;;
20754;SDS011;26385;48.470;7.938;2022-10-26T04:47:10;3.33;;;1.80;;
20754;SDS011;26385;48.470;7.938;2022-10-26T04:49:35;5.05;;;2.33;;
20754;SDS011;26385;48.470;7.938;2022-10-26T04:52:01;5.72;;;2.17;;
20754;SDS011;26385;48.470;7.938;2022-10-26T04:54:26;4.43;;;2.00;;
20754;SDS011;26385;48.470;7.938;2022-10-26T04:56:51;4.28;;;2.25;;
20754;SDS011;26385;48.470;7.938;2022-10-26T04:59:16;4.15;;;2.15;;
20754;SDS011;26385;48.470;7.938;2022-10-26T05:01:42;5.43;;;2.63;;
20754;SDS011;26385;48.470;7.938;2022-10-26T05:04:07;5.50;;;2.00;;
20754;SDS011;26385;48.470;7.938;2022-10-26T05:06:32;3.88;;;2.10;;
20754;SDS011;26385;48.470;7.938;2022-10-26T05:08:57;6.60;;;2.33;;
20754;SDS011;26385;48.470;7.938;2022-10-26T05:11:23;5.28;;;2.25;;
20754;SDS011;26385;48.470;7.938;2022-10-26T05:13:48;5.35;;;2.42;;
20754;SDS011;26385;48.470;7.938;2022-10-26T05:16:13;4.72;;;2.40;;
20754;SDS011;26385;48.470;7.938;2022-10-26T05:18:40;7.97;;;2.58;;
20754;SDS011;26385;48.470;7.938;2022-10-26T05:21:05;6.25;;;2.42;;
20754;SDS011;26385;48.470;7.938;2022-10-26T05:23:31;7.45;;;2.47;;
20754;SDS011;26385;48.470;7.938;2022-10-26T05:25:56;4.20;;;2.33;;
20754;SDS011;26385;48.470;7.938;2022-10-26T05:28:21;6.63;;;2.38;;
20754;SDS011;26385;48.470;7.938;2022-10-26T05:30:46;5.95;;;2.28;;
20754;SDS011;26385;48.470;7.938;2022-10-26T05:33:12;5.47;;;2.70;;
20754;SDS011;26385;48.470;7.938;2022-10-26T05:35:38;7.45;;;2.35;;
20754;SDS011;26385;48.470;7.938;2022-10-26T05:40:49;4.55;;;2.30;;
20754;SDS011;26385;48.470;7.938;2022-10-26T05:43:16;4.90;;;2.55;;
20754;SDS011;26385;48.470;7.938;2022-10-26T05:45:42;5.07;;;2.10;;
20754;SDS011;26385;48.470;7.938;2022-10-26T05:48:08;7.00;;;2.70;;
20754;SDS011;26385;48.470;7.938;2022-10-26T05:50:33;4.95;;;2.40;;
20754;SDS011;26385;48.470;7.938;2022-10-26T05:52:58;7.25;;;2.60;;
20754;SDS011;26385;48.470;7.938;2022-10-26T05:55:24;5.07;;;2.72;;
20754;SDS011;26385;48.470;7.938;2022-10-26T05:57:49;6.20;;;2.42;;
20754;SDS011;26385;48.470;7.938;2022-10-26T06:00:16;3.80;;;2.58;;
20754;SDS011;26385;48.470;7.938;2022-10-26T06:02:53;5.32;;;2.35;;
20754;SDS011;26385;48.470;7.938;2022-10-26T06:05:50;6.32;;;2.53;;
20754;SDS011;26385;48.470;7.938;2022-10-26T06:08:18;3.83;;;2.20;;
20754;SDS011;26385;48.470;7.938;2022-10-26T06:10:44;4.05;;;2.13;;
20754;SDS011;26385;48.470;7.938;2022-10-26T06:13:10;5.13;;;2.72;;
20754;SDS011;26385;48.470;7.938;2022-10-26T06:18:31;9.63;;;2.53;;
20754;SDS011;26385;48.470;7.938;2022-10-26T06:21:22;4.30;;;2.47;;
20754;SDS011;26385;48.470;7.938;2022-10-26T06:23:57;5.88;;;2.70;;
20754;SDS011;26385;48.470;7.938;2022-10-26T06:31:48;4.75;;;2.45;;
20754;SDS011;26385;48.470;7.938;2022-10-26T06:34:16;4.25;;;2.40;;
20754;SDS011;26385;48.470;7.938;2022-10-26T06:36:46;5.72;;;2.50;;
20754;SDS011;26385;48.470;7.938;2022-10-26T06:39:13;7.47;;;3.00;;
20754;SDS011;26385;48.470;7.938;2022-10-26T06:41:40;6.82;;;3.05;;
20754;SDS011;26385;48.470;7.938;2022-10-26T06:44:07;7.32;;;3.20;;
20754;SDS011;26385;48.470;7.938;2022-10-26T06:46:44;5.22;;;3.08;;
20754;SDS011;26385;48.470;7.938;2022-10-26T06:49:19;6.47;;;3.20;;
20754;SDS011;26385;48.470;7.938;2022-10-26T06:51:58;8.82;;;3.35;;
20754;SDS011;26385;48.470;7.938;2022-10-26T06:57:12;6.90;;;3.22;;
20754;SDS011;26385;48.470;7.938;2022-10-26T06:59:41;6.10;;;2.80;;
20754;SDS011;26385;48.470;7.938;2022-10-26T07:02:12;8.13;;;3.00;;
20754;SDS011;26385;48.470;7.938;2022-10-26T07:04:39;4.68;;;2.65;;
20754;SDS011;26385;48.470;7.938;2022-10-26T07:07:05;6.70;;;3.17;;
20754;SDS011;26385;48.470;7.938;2022-10-26T07:09:32;6.57;;;3.10;;
20754;SDS011;26385;48.470;7.938;2022-10-26T07:11:57;9.15;;;3.08;;
20754;SDS011;26385;48.470;7.938;2022-10-26T07:14:22;8.23;;;3.47;;
20754;SDS011;26385;48.470;7.938;2022-10-26T07:16:48;9.18;;;4.40;;
20754;SDS011;26385;48.470;7.938;2022-10-26T07:19:13;4.40;;;3.53;;
20754;SDS011;26385;48.470;7.938;2022-10-26T07:21:38;6.60;;;3.28;;
20754;SDS011;26385;48.470;7.938;2022-10-26T07:24:04;8.20;;;3.50;;
20754;SDS011;26385;48.470;7.938;2022-10-26T07:26:29;8.82;;;3.95;;
20754;SDS011;26385;48.470;7.938;2022-10-26T07:28:54;6.18;;;4.22;;
20754;SDS011;26385;48.470;7.938;2022-10-26T07:31:20;5.90;;;3.30;;
20754;SDS011;26385;48.470;7.938;2022-10-26T07:33:45;9.95;;;3.80;;
20754;SDS011;26385;48.470;7.938;2022-10-26T07:36:11;7.13;;;3.88;;
20754;SDS011;26385;48.470;7.938;2022-10-26T07:38:37;8.48;;;3.17;;
20754;SDS011;26385;48.470;7.938;2022-10-26T07:41:03;8.38;;;3.70;;
20754;SDS011;26385;48.470;7.938;2022-10-26T07:43:29;8.63;;;3.17;;
20754;SDS011;26385;48.470;7.938;2022-10-26T07:45:54;5.10;;;3.05;;
20754;SDS011;26385;48.470;7.938;2022-10-26T07:48:19;9.82;;;3.22;;
20754;SDS011;26385;48.470;7.938;2022-10-26T07:50:44;5.50;;;3.00;;
20754;SDS011;26385;48.470;7.938;2022-10-26T07:53:10;5.50;;;2.70;;
20754;SDS011;26385;48.470;7.938;2022-10-26T07:55:35;9.05;;;3.35;;
20754;SDS011;26385;48.470;7.938;2022-10-26T07:58:00;8.60;;;3.97;;
20754;SDS011;26385;48.470;7.938;2022-10-26T08:00:26;8.43;;;3.58;;
20754;SDS011;26385;48.470;7.938;2022-10-26T08:02:52;7.32;;;2.97;;
20754;SDS011;26385;48.470;7.938;2022-10-26T08:05:18;7.15;;;3.42;;
20754;SDS011;26385;48.470;7.938;2022-10-26T08:07:43;4.45;;;2.75;;
20754;SDS011;26385;48.470;7.938;2022-10-26T08:10:09;5.45;;;3.00;;
20754;SDS011;26385;48.470;7.938;2022-10-26T08:12:36;9.85;;;2.88;;
20754;SDS011;26385;48.470;7.938;2022-10-26T08:15:01;9.20;;;2.92;;
20754;SDS011;26385;48.470;7.938;2022-10-26T08:17:27;5.32;;;2.90;;
20754;SDS011;26385;48.470;7.938;2022-10-26T08:19:53;5.13;;;2.53;;
20754;SDS011;26385;48.470;7.938;2022-10-26T08:22:18;6.53;;;3.38;;
20754;SDS011;26385;48.470;7.938;2022-10-26T08:24:43;8.63;;;2.65;;
20754;SDS011;26385;48.470;7.938;2022-10-26T08:27:10;7.88;;;2.72;;
20754;SDS011;26385;48.470;7.938;2022-10-26T08:29:40;8.95;;;3.72;;
20754;SDS011;26385;48.470;7.938;2022-10-26T08:32:05;10.10;;;4.00;;
20754;SDS011;26385;48.470;7.938;2022-10-26T08:34:31;5.68;;;2.60;;
20754;SDS011;26385;48.470;7.938;2022-10-26T08:36:56;5.93;;;2.75;;
20754;SDS011;26385;48.470;7.938;2022-10-26T08:39:21;10.55;;;3.53;;
20754;SDS011;26385;48.470;7.938;2022-10-26T08:41:48;7.13;;;3.00;;
20754;SDS011;26385;48.470;7.938;2022-10-26T08:46:57;11.13;;;3.05;;
20754;SDS011;26385;48.470;7.938;2022-10-26T08:49:29;9.10;;;2.85;;
20754;SDS011;26385;48.470;7.938;2022-10-26T08:52:00;7.40;;;2.80;;
20754;SDS011;26385;48.470;7.938;2022-10-26T08:57:20;8.95;;;3.30;;
20754;SDS011;26385;48.470;7.938;2022-10-26T08:59:55;5.97;;;3.25;;
20754;SDS011;26385;48.470;7.938;2022-10-26T09:02:24;8.60;;;3.15;;
20754;SDS011;26385;48.470;7.938;2022-10-26T09:04:50;7.18;;;3.22;;
20754;SDS011;26385;48.470;7.938;2022-10-26T09:07:32;6.28;;;2.95;;
20754;SDS011;26385;48.470;7.938;2022-10-26T09:10:07;6.45;;;3.00;;
20754;SDS011;26385;48.470;7.938;2022-10-26T09:18:22;5.70;;;3.25;;
20754;SDS011;26385;48.470;7.938;2022-10-26T09:23:51;14.98;;;3.15;;
20754;SDS011;26385;48.470;7.938;2022-10-26T09:26:27;6.63;;;3.13;;
20754;SDS011;26385;48.470;7.938;2022-10-26T09:29:03;6.22;;;3.42;;
20754;SDS011;26385;48.470;7.938;2022-10-26T09:31:32;12.10;;;4.55;;
20754;SDS011;26385;48.470;7.938;2022-10-26T09:34:02;9.25;;;3.53;;
20754;SDS011;26385;48.470;7.938;2022-10-26T09:36:29;6.53;;;3.10;;
20754;SDS011;26385;48.470;7.938;2022-10-26T09:38:56;8.23;;;3.30;;
20754;SDS011;26385;48.470;7.938;2022-10-26T09:41:38;6.10;;;3.40;;
20754;SDS011;26385;48.470;7.938;2022-10-26T09:44:10;5.63;;;3.22;;
20754;SDS011;26385;48.470;7.938;2022-10-26T09:49:55;11.52;;;3.20;;
20754;SDS011;26385;48.470;7.938;2022-10-26T09:52:25;8.45;;;2.97;;
20754;SDS011;26385;48.470;7.938;2022-10-26T09:54:50;7.75;;;3.50;;
20754;SDS011;26385;48.470;7.938;2022-10-26T09:57:16;6.15;;;3.90;;
20754;SDS011;26385;48.470;7.938;2022-10-26T09:59:44;10.02;;;3.50;;
20754;SDS011;26385;48.470;7.938;2022-10-26T10:02:33;6.80;;;3.45;;
20754;SDS011;26385;48.470;7.938;2022-10-26T10:05:00;11.05;;;3.55;;
20754;SDS011;26385;48.470;7.938;2022-10-26T10:07:26;7.22;;;3.58;;
20754;SDS011;26385;48.470;7.938;2022-10-26T10:10:07;6.45;;;2.88;;
20754;SDS011;26385;48.470;7.938;2022-10-26T10:12:38;7.55;;;3.97;;
20754;SDS011;26385;48.470;7.938;2022-10-26T10:15:04;7.47;;;3.33;;
20754;SDS011;26385;48.470;7.938;2022-10-26T10:17:29;5.20;;;3.30;;
20754;SDS011;26385;48.470;7.938;2022-10-26T10:19:55;7.60;;;3.13;;
20754;SDS011;26385;48.470;7.938;2022-10-26T10:22:31;7.38;;;3.35;;
20754;SDS011;26385;48.470;7.938;2022-10-26T10:25:00;9.68;;;3.40;;
20754;SDS011;26385;48.470;7.938;2022-10-26T10:27:27;8.48;;;3.25;;
20754;SDS011;26385;48.470;7.938;2022-10-26T10:29:55;7.80;;;3.50;;
20754;SDS011;26385;48.470;7.938;2022-10-26T10:32:22;10.98;;;4.00;;
20754;SDS011;26385;48.470;7.938;2022-10-26T10:34:50;14.48;;;7.18;;
20754;SDS011;26385;48.470;7.938;2022-10-26T10:37:29;10.85;;;3.83;;
20754;SDS011;26385;48.470;7.938;2022-10-26T10:39:59;7.20;;;3.67;;
20754;SDS011;26385;48.470;7.938;2022-10-26T10:42:29;13.93;;;4.78;;
20754;SDS011;26385;48.470;7.938;2022-10-26T10:44:56;8.75;;;4.07;;
20754;SDS011;26385;48.470;7.938;2022-10-26T10:50:06;9.50;;;3.05;;
20754;SDS011;26385;48.470;7.938;2022-10-26T10:52:40;13.30;;;4.28;;
20754;SDS011;26385;48.470;7.938;2022-10-26T11:00:35;4.43;;;3.28;;
20754;SDS011;26385;48.470;7.938;2022-10-26T11:03:09;8.60;;;3.60;;
20754;SDS011;26385;48.470;7.938;2022-10-26T11:08:34;8.48;;;4.10;;
20754;SDS011;26385;48.470;7.938;2022-10-26T11:11:08;6.78;;;4.40;;
20754;SDS011;26385;48.470;7.938;2022-10-26T11:19:23;9.85;;;3.65;;
20754;SDS011;26385;48.470;7.938;2022-10-26T11:21:54;8.90;;;3.58;;
20754;SDS011;26385;48.470;7.938;2022-10-26T11:27:28;8.85;;;3.65;;
20754;SDS011;26385;48.470;7.938;2022-10-26T11:30:01;10.02;;;3.30;;
20754;SDS011;26385;48.470;7.938;2022-10-26T11:32:36;12.48;;;3.42;;
20754;SDS011;26385;48.470;7.938;2022-10-26T11:40:21;9.45;;;3.13;;
20754;SDS011;26385;48.470;7.938;2022-10-26T11:43:04;9.40;;;3.10;;
20754;SDS011;26385;48.470;7.938;2022-10-26T11:45:35;11.32;;;3.00;;
20754;SDS011;26385;48.470;7.938;2022-10-26T11:48:11;11.88;;;3.28;;
20754;SDS011;26385;48.470;7.938;2022-10-26T11:50:42;10.50;;;3.17;;
20754;SDS011;26385;48.470;7.938;2022-10-26T11:53:18;6.50;;;3.08;;
20754;SDS011;26385;48.470;7.938;2022-10-26T11:55:51;7.53;;;3.40;;
20754;SDS011;26385;48.470;7.938;2022-10-26T11:58:21;8.98;;;3.78;;
20754;SDS011;26385;48.470;7.938;2022-10-26T12:00:50;9.45;;;2.80;;
20754;SDS011;26385;48.470;7.938;2022-10-26T12:03:17;8.73;;;3.10;;
20754;SDS011;26385;48.470;7.938;2022-10-26T12:05:48;8.30;;;3.25;;
20754;SDS011;26385;48.470;7.938;2022-10-26T12:08:23;8.20;;;2.67;;
20754;SDS011;26385;48.470;7.938;2022-10-26T12:11:06;8.65;;;2.72;;
20754;SDS011;26385;48.470;7.938;2022-10-26T12:16:20;11.65;;;3.00;;
20754;SDS011;26385;48.470;7.938;2022-10-26T12:19:07;9.63;;;2.60;;
20754;SDS011;26385;48.470;7.938;2022-10-26T12:21:39;6.82;;;2.65;;
20754;SDS011;26385;48.470;7.938;2022-10-26T12:26:54;10.32;;;3.10;;
20754;SDS011;26385;48.470;7.938;2022-10-26T12:31:54;6.07;;;2.65;;
20754;SDS011;26385;48.470;7.938;2022-10-26T12:39:35;8.73;;;2.40;;
20754;SDS011;26385;48.470;7.938;2022-10-26T12:44:34;9.90;;;2.70;;
20754;SDS011;26385;48.470;7.938;2022-10-26T12:57:54;7.13;;;2.50;;
20754;SDS011;26385;48.470;7.938;2022-10-26T13:00:47;10.35;;;2.92;;
20754;SDS011;26385;48.470;7.938;2022-10-26T13:08:56;8.70;;;2.92;;
20754;SDS011;26385;48.470;7.938;2022-10-26T13:11:28;7.90;;;2.65;;
20754;SDS011;26385;48.470;7.938;2022-10-26T13:13:56;6.45;;;2.70;;
20754;SDS011;26385;48.470;7.938;2022-10-26T13:16:25;8.35;;;2.67;;
20754;SDS011;26385;48.470;7.938;2022-10-26T13:18:52;7.85;;;2.78;;
20754;SDS011;26385;48.470;7.938;2022-10-26T13:21:18;13.10;;;3.30;;
20754;SDS011;26385;48.470;7.938;2022-10-26T13:23:46;9.05;;;3.00;;
20754;SDS011;26385;48.470;7.938;2022-10-26T13:26:22;9.07;;;2.75;;
20754;SDS011;26385;48.470;7.938;2022-10-26T13:28:50;8.80;;;2.95;;
20754;SDS011;26385;48.470;7.938;2022-10-26T13:34:08;9.65;;;2.78;;
20754;SDS011;26385;48.470;7.938;2022-10-26T13:36:43;6.75;;;2.45;;
20754;SDS011;26385;48.470;7.938;2022-10-26T13:39:15;8.68;;;2.92;;
20754;SDS011;26385;48.470;7.938;2022-10-26T13:41:45;7.10;;;2.60;;
20754;SDS011;26385;48.470;7.938;2022-10-26T13:44:15;10.55;;;2.80;;
20754;SDS011;26385;48.470;7.938;2022-10-26T13:46:46;16.05;;;3.45;;
20754;SDS011;26385;48.470;7.938;2022-10-26T13:49:19;10.55;;;2.95;;
20754;SDS011;26385;48.470;7.938;2022-10-26T13:51:49;12.30;;;3.22;;
20754;SDS011;26385;48.470;7.938;2022-10-26T13:54:24;10.52;;;3.45;;
20754;SDS011;26385;48.470;7.938;2022-10-26T13:59:41;17.38;;;4.20;;
20754;SDS011;26385;48.470;7.938;2022-10-26T14:02:16;14.68;;;3.50;;
20754;SDS011;26385;48.470;7.938;2022-10-26T14:04:59;12.82;;;3.60;;
20754;SDS011;26385;48.470;7.938;2022-10-26T14:07:28;13.23;;;3.67;;
20754;SDS011;26385;48.470;7.938;2022-10-26T14:09:55;13.15;;;3.35;;
20754;SDS011;26385;48.470;7.938;2022-10-26T14:12:22;12.30;;;3.85;;
20754;SDS011;26385;48.470;7.938;2022-10-26T14:14:49;13.75;;;3.72;;
20754;SDS011;26385;48.470;7.938;2022-10-26T14:17:17;11.00;;;3.33;;
20754;SDS011;26385;48.470;7.938;2022-10-26T14:19:44;17.10;;;4.55;;
20754;SDS011;26385;48.470;7.938;2022-10-26T14:22:28;11.05;;;3.85;;
20754;SDS011;26385;48.470;7.938;2022-10-26T14:24:55;13.93;;;4.10;;
20754;SDS011;26385;48.470;7.938;2022-10-26T14:27:23;15.60;;;3.88;;
20754;SDS011;26385;48.470;7.938;2022-10-26T14:29:50;15.35;;;3.83;;
20754;SDS011;26385;48.470;7.938;2022-10-26T14:32:21;12.07;;;4.03;;
20754;SDS011;26385;48.470;7.938;2022-10-26T14:34:53;15.25;;;3.92;;
20754;SDS011;26385;48.470;7.938;2022-10-26T14:37:29;13.05;;;4.28;;
20754;SDS011;26385;48.470;7.938;2022-10-26T14:39:57;10.48;;;4.50;;
20754;SDS011;26385;48.470;7.938;2022-10-26T14:42:27;13.50;;;4.25;;
20754;SDS011;26385;48.470;7.938;2022-10-26T14:44:55;10.63;;;3.60;;
20754;SDS011;26385;48.470;7.938;2022-10-26T14:47:23;12.82;;;4.43;;
20754;SDS011;26385;48.470;7.938;2022-10-26T14:49:51;17.73;;;4.10;;
20754;SDS011;26385;48.470;7.938;2022-10-26T14:52:20;15.82;;;3.80;;
20754;SDS011;26385;48.470;7.938;2022-10-26T14:54:58;16.25;;;3.97;;
20754;SDS011;26385;48.470;7.938;2022-10-26T14:57:29;16.90;;;4.35;;
20754;SDS011;26385;48.470;7.938;2022-10-26T15:00:12;11.35;;;3.97;;
20754;SDS011;26385;48.470;7.938;2022-10-26T15:02:39;12.63;;;4.18;;
20754;SDS011;26385;48.470;7.938;2022-10-26T15:07:42;15.25;;;4.28;;
20754;SDS011;26385;48.470;7.938;2022-10-26T15:13:29;11.63;;;4.30;;
20754;SDS011;26385;48.470;7.938;2022-10-26T15:15:57;16.92;;;4.47;;
20754;SDS011;26385;48.470;7.938;2022-10-26T15:18:32;10.10;;;3.72;;
20754;SDS011;26385;48.470;7.938;2022-10-26T15:21:00;13.57;;;4.18;;
20754;SDS011;26385;48.470;7.938;2022-10-26T15:23:26;10.75;;;3.63;;
20754;SDS011;26385;48.470;7.938;2022-10-26T15:25:54;14.73;;;4.47;;
20754;SDS011;26385;48.470;7.938;2022-10-26T15:30:58;14.00;;;4.10;;
20754;SDS011;26385;48.470;7.938;2022-10-26T15:33:25;9.57;;;3.63;;
20754;SDS011;26385;48.470;7.938;2022-10-26T15:36:03;12.55;;;4.20;;
20754;SDS011;26385;48.470;7.938;2022-10-26T15:38:33;8.70;;;3.97;;
20754;SDS011;26385;48.470;7.938;2022-10-26T15:40:59;13.45;;;3.60;;
20754;SDS011;26385;48.470;7.938;2022-10-26T15:43:24;13.77;;;4.32;;
20754;SDS011;26385;48.470;7.938;2022-10-26T15:45:50;14.73;;;5.35;;
20754;SDS011;26385;48.470;7.938;2022-10-26T15:48:23;17.20;;;5.45;;
20754;SDS011;26385;48.470;7.938;2022-10-26T15:50:51;16.45;;;5.20;;
20754;SDS011;26385;48.470;7.938;2022-10-26T15:53:20;12.65;;;4.78;;
20754;SDS011;26385;48.470;7.938;2022-10-26T15:55:51;14.05;;;4.90;;
20754;SDS011;26385;48.470;7.938;2022-10-26T15:58:17;10.98;;;4.65;;
20754;SDS011;26385;48.470;7.938;2022-10-26T16:00:43;11.82;;;5.25;;
20754;SDS011;26385;48.470;7.938;2022-10-26T16:03:19;16.08;;;5.53;;
20754;SDS011;26385;48.470;7.938;2022-10-26T16:05:47;17.40;;;5.60;;
20754;SDS011;26385;48.470;7.938;2022-10-26T16:08:17;15.95;;;4.97;;
20754;SDS011;26385;48.470;7.938;2022-10-26T16:10:43;23.38;;;5.22;;
20754;SDS011;26385;48.470;7.938;2022-10-26T16:13:11;16.85;;;7.07;;
20754;SDS011;26385;48.470;7.938;2022-10-26T16:15:37;16.00;;;5.03;;
20754;SDS011;26385;48.470;7.938;2022-10-26T16:18:02;16.38;;;5.70;;
20754;SDS011;26385;48.470;7.938;2022-10-26T16:20:28;14.15;;;4.97;;
20754;SDS011;26385;48.470;7.938;2022-10-26T16:22:53;10.65;;;5.03;;
20754;SDS011;26385;48.470;7.938;2022-10-26T16:25:21;17.10;;;5.28;;
20754;SDS011;26385;48.470;7.938;2022-10-26T16:27:48;16.75;;;5.35;;
20754;SDS011;26385;48.470;7.938;2022-10-26T16:30:14;13.93;;;5.13;;
20754;SDS011;26385;48.470;7.938;2022-10-26T16:32:40;17.40;;;5.45;;
20754;SDS011;26385;48.470;7.938;2022-10-26T16:35:06;16.23;;;5.68;;
20754;SDS011;26385;48.470;7.938;2022-10-26T16:37:33;15.93;;;5.65;;
20754;SDS011;26385;48.470;7.938;2022-10-26T16:39:58;18.35;;;5.90;;
20754;SDS011;26385;48.470;7.938;2022-10-26T16:42:23;14.80;;;5.80;;
20754;SDS011;26385;48.470;7.938;2022-10-26T16:44:49;17.35;;;6.13;;
20754;SDS011;26385;48.470;7.938;2022-10-26T16:47:14;18.50;;;6.28;;
20754;SDS011;26385;48.470;7.938;2022-10-26T16:49:39;17.25;;;5.85;;
20754;SDS011;26385;48.470;7.938;2022-10-26T16:52:07;16.30;;;5.78;;
20754;SDS011;26385;48.470;7.938;2022-10-26T16:54:33;13.05;;;5.10;;
20754;SDS011;26385;48.470;7.938;2022-10-26T16:56:58;14.13;;;5.45;;
20754;SDS011;26385;48.470;7.938;2022-10-26T16:59:23;16.23;;;5.28;;